Time;durP1;ratioP1;P1;durP2;ratioP2;P2;SDS_P1;SDS_P2;PMS_P1;PMS_P2;Temp;Humidity;BMP_temperature;BMP_pressure;BME280_temperature;BME280_humidity;BME280_pressure;Samples;Min_cycle;Max_cycle;Signal;HPM_P1;HPM_P2
2023/11/09 00:00:15;;;;;;;;;;;;;;;-145.56;100.00;59612.91;7397091;19;1667;-38
2023/11/09 00:02:43;;;;;;;;;;;;;;;-145.56;100.00;59612.91;7395996;19;1556;-38
2023/11/09 00:05:14;;;;;;;;;;;;;;;-145.56;100.00;59612.91;7394929;19;1865;-38
2023/11/09 00:07:42;;;;;;;;;;;;;;;-145.56;100.00;59612.91;7393424;19;1359;-46
2023/11/09 00:10:12;;;;;;;;;;;;;;;-145.56;100.00;59612.91;7395655;19;2838;-40
2023/11/09 00:12:43;;;;;;;;;;;;;;;-145.56;100.00;59612.91;7395943;19;1556;-38
2023/11/09 00:15:11;;;;;;;;;;;;;;;-145.56;100.00;59612.91;7395761;19;1436;-38
2023/11/09 00:17:40;;;;;;;;;;;;;;;-145.56;100.00;59612.91;7396375;19;1483;-38
2023/11/09 00:20:09;;;;;;;;;;;;;;;-145.56;100.00;59612.91;7396254;19;1579;-38
2023/11/09 00:22:41;;;;;;;;;;;;;;;-145.56;100.00;59612.91;7395830;19;1911;-38
2023/11/09 00:25:09;;;;;;;;;;;;;;;-145.56;100.00;59612.91;7393159;19;1838;-38
2023/11/09 00:27:38;;;;;;;;;;;;;;;-145.56;100.00;59612.91;7394095;19;1661;-38
2023/11/09 00:30:07;;;;;;;;;;;;;;;-145.56;100.00;59612.91;7395093;19;1365;-38
2023/11/09 00:32:36;;;;;;;;;;;;;;;-145.56;100.00;59612.91;7381914;19;1382;-38
2023/11/09 00:35:05;;;;;;;;;;;;;;;-145.56;100.00;59612.91;7394617;19;1676;-38
2023/11/09 00:37:33;;;;;;;;;;;;;;;-145.56;100.00;59612.91;7395270;19;1792;-38
2023/11/09 00:40:05;;;;;;;;;;;;;;;-145.56;100.00;59612.91;7392992;19;1657;-38
2023/11/09 00:42:33;;;;;;;;;;;;;;;-145.56;100.00;59612.91;7395525;19;1739;-38
2023/11/09 00:45:01;;;;;;;;;;;;;;;-145.56;100.00;59612.91;7393417;19;1879;-38
2023/11/09 00:47:30;;;;;;;;;;;;;;;-145.56;100.00;59612.91;7394721;19;1701;-38
2023/11/09 00:49:58;;;;;;;;;;;;;;;-145.56;100.00;59612.91;7394687;19;1341;-38
2023/11/09 00:52:27;;;;;;;;;;;;;;;-145.56;100.00;59612.91;7393589;19;1693;-38
2023/11/09 00:54:55;;;;;;;;;;;;;;;-145.56;100.00;59612.91;7395225;19;1813;-38
2023/11/09 00:57:30;;;;;;;;;;;;;;;-145.56;100.00;59612.91;7394910;19;1819;-38
2023/11/09 00:59:59;;;;;;;;;;;;;;;-145.56;100.00;59612.91;7394117;19;1840;-38
2023/11/09 01:02:28;;;;;;;;;;;;;;;-145.56;100.00;59612.91;7393638;19;1532;-38
2023/11/09 01:04:57;;;;;;;;;;;;;;;-145.56;100.00;59612.91;7394095;19;1877;-38
2023/11/09 01:07:26;;;;;;;;;;;;;;;-145.56;100.00;59612.91;7393367;19;1295;-38
2023/11/09 01:09:54;;;;;;;;;;;;;;;-145.56;100.00;59612.91;7394308;19;1830;-38
2023/11/09 01:12:22;;;;;;;;;;;;;;;-145.56;100.00;59612.91;7394184;19;1547;-38
2023/11/09 01:14:54;;;;;;;;;;;;;;;-145.56;100.00;59612.91;7395239;19;1065;-38
2023/11/09 01:17:22;;;;;;;;;;;;;;;-145.56;100.00;59612.91;7393890;19;1942;-38
2023/11/09 01:19:50;;;;;;;;;;;;;;;-145.56;100.00;59612.91;7392747;19;1816;-38
2023/11/09 01:22:19;;;;;;;;;;;;;;;-145.56;100.00;59612.91;7392624;19;1497;-38
2023/11/09 01:24:48;;;;;;;;;;;;;;;-145.56;100.00;59612.91;7394035;19;1860;-38
2023/11/09 01:27:16;;;;;;;;;;;;;;;-145.56;100.00;59612.91;7393209;19;1569;-38
2023/11/09 01:29:44;;;;;;;;;;;;;;;-145.56;100.00;59612.91;7392839;19;1694;-38
2023/11/09 01:32:15;;;;;;;;;;;;;;;-145.56;100.00;59612.91;7378600;19;1540;-38
2023/11/09 01:34:44;;;;;;;;;;;;;;;-145.56;100.00;59612.91;7391780;19;1395;-38
2023/11/09 01:37:12;;;;;;;;;;;;;;;-145.56;100.00;59612.91;7391467;19;1399;-38
2023/11/09 01:39:41;;;;;;;;;;;;;;;-145.56;100.00;59612.91;7393017;19;1741;-38
2023/11/09 01:42:09;;;;;;;;;;;;;;;-145.56;100.00;59612.91;7391965;19;1665;-37
2023/11/09 01:44:37;;;;;;;;;;;;;;;-145.56;100.00;59612.91;7392044;19;1441;-38
2023/11/09 01:47:06;;;;;;;;;;;;;;;-145.56;100.00;59612.91;7393264;19;1857;-38
2023/11/09 01:49:39;;;;;;;;;;;;;;;-145.56;100.00;59612.91;7393957;19;1745;-38
2023/11/09 01:52:08;;;;;;;;;;;;;;;-145.56;100.00;59612.91;7392441;19;1913;-38
2023/11/09 01:54:37;;;;;;;;;;;;;;;-145.56;100.00;59612.91;7392159;19;1448;-38
2023/11/09 01:57:07;;;;;;;;;;;;;;;-145.56;100.00;59612.91;7391889;19;1911;-38
2023/11/09 01:59:37;;;;;;;;;;;;;;;-145.56;100.00;59612.91;7392151;19;1930;-38
2023/11/09 02:02:05;;;;;;;;;;;;;;;-145.56;100.00;59612.91;7392174;19;1543;-38
2023/11/09 02:04:37;;;;;;;;;;;;;;;-145.56;100.00;59612.91;7392250;19;1479;-38
2023/11/09 02:07:06;;;;;;;;;;;;;;;-145.56;100.00;59612.91;7388729;19;1860;-38
2023/11/09 02:09:35;;;;;;;;;;;;;;;-145.56;100.00;59612.91;7393248;19;1257;-38
2023/11/09 02:12:03;;;;;;;;;;;;;;;-145.56;100.00;59612.91;7392468;19;1570;-38
2023/11/09 02:14:32;;;;;;;;;;;;;;;-145.56;100.00;59612.91;7392190;19;1819;-38
2023/11/09 02:17:00;;;;;;;;;;;;;;;-145.56;100.00;59612.91;7391690;19;1852;-38
2023/11/09 02:19:29;;;;;;;;;;;;;;;-145.56;100.00;59612.91;7392285;19;1853;-38
2023/11/09 02:22:01;;;;;;;;;;;;;;;-145.56;100.00;59612.91;7390834;19;1472;-38
2023/11/09 02:24:32;;;;;;;;;;;;;;;-145.56;100.00;59612.91;7391605;19;1743;-38
2023/11/09 02:27:01;;;;;;;;;;;;;;;-145.56;100.00;59612.91;7389501;19;1834;-38
2023/11/09 02:29:30;;;;;;;;;;;;;;;-145.56;100.00;59612.91;7390466;19;1476;-38
2023/11/09 02:32:00;;;;;;;;;;;;;;;-145.56;100.00;59612.91;7379287;19;1732;-38
2023/11/09 02:34:31;;;;;;;;;;;;;;;-145.56;100.00;59612.91;7399260;19;1574;-38
2023/11/09 02:36:59;;;;;;;;;;;;;;;-145.56;100.00;59612.91;7398671;19;1746;-44
2023/11/09 02:39:28;;;;;;;;;;;;;;;-145.56;100.00;59612.91;7398446;19;1533;-38
2023/11/09 02:41:59;;;;;;;;;;;;;;;-145.56;100.00;59612.91;7399315;19;1785;-38
2023/11/09 02:44:27;;;;;;;;;;;;;;;-145.56;100.00;59612.91;7399588;19;1613;-38
2023/11/09 02:46:55;;;;;;;;;;;;;;;-145.56;100.00;59612.91;7397902;19;1954;-38
2023/11/09 02:49:24;;;;;;;;;;;;;;;-145.56;100.00;59612.91;7399165;19;1824;-38
2023/11/09 02:51:53;;;;;;;;;;;;;;;-145.56;100.00;59612.91;7399331;19;1899;-38
2023/11/09 02:54:21;;;;;;;;;;;;;;;-145.56;100.00;59612.91;7398894;19;1737;-38
2023/11/09 02:56:49;;;;;;;;;;;;;;;-145.56;100.00;59612.91;7397918;19;1383;-38
2023/11/09 02:59:20;;;;;;;;;;;;;;;-145.56;100.00;59612.91;7397690;19;1736;-38
2023/11/09 03:01:49;;;;;;;;;;;;;;;-145.56;100.00;59612.91;7398307;19;1598;-38
2023/11/09 03:04:18;;;;;;;;;;;;;;;-145.56;100.00;59612.91;7398534;19;1015;-38
2023/11/09 03:06:46;;;;;;;;;;;;;;;-145.56;100.00;59612.91;7395509;19;1884;-38
2023/11/09 03:09:18;;;;;;;;;;;;;;;-145.56;100.00;59612.91;7397441;19;1909;-38
2023/11/09 03:11:46;;;;;;;;;;;;;;;-145.56;100.00;59612.91;7396273;19;1612;-38
2023/11/09 03:14:14;;;;;;;;;;;;;;;-145.56;100.00;59612.91;7396977;19;1449;-38
2023/11/09 03:16:45;;;;;;;;;;;;;;;-145.56;100.00;59612.91;7397156;19;1373;-38
2023/11/09 03:19:13;;;;;;;;;;;;;;;-145.56;100.00;59612.91;7397220;19;1457;-38
2023/11/09 03:21:42;;;;;;;;;;;;;;;-145.56;100.00;59612.91;7396828;19;1479;-38
2023/11/09 03:24:10;;;;;;;;;;;;;;;-145.56;100.00;59612.91;7395988;19;1735;-38
2023/11/09 03:26:40;;;;;;;;;;;;;;;-145.56;100.00;59612.91;7395136;19;1832;-38
2023/11/09 03:29:08;;;;;;;;;;;;;;;-145.56;100.00;59612.91;7398200;19;1468;-38
2023/11/09 03:31:37;;;;;;;;;;;;;;;-145.56;100.00;59612.91;7398133;19;1469;-39
2023/11/09 03:34:08;;;;;;;;;;;;;;;-145.56;100.00;59612.91;7383341;19;1417;-38
2023/11/09 03:36:37;;;;;;;;;;;;;;;-145.56;100.00;59612.91;7397219;19;1551;-38
2023/11/09 03:39:06;;;;;;;;;;;;;;;-145.56;100.00;59612.91;7396674;19;1719;-38
2023/11/09 03:41:34;;;;;;;;;;;;;;;-145.56;100.00;59612.91;7395866;19;1725;-38
2023/11/09 03:44:02;;;;;;;;;;;;;;;-145.56;100.00;59612.91;7395934;19;1581;-38
2023/11/09 03:46:30;;;;;;;;;;;;;;;-145.56;100.00;59612.91;7395448;19;1853;-38
2023/11/09 03:48:59;;;;;;;;;;;;;;;-145.56;100.00;59612.91;7397082;19;1263;-38
2023/11/09 03:51:30;;;;;;;;;;;;;;;-145.56;100.00;59612.91;7395910;19;1631;-38
2023/11/09 03:53:58;;;;;;;;;;;;;;;-145.56;100.00;59612.91;7395810;19;1643;-38
2023/11/09 03:56:26;;;;;;;;;;;;;;;-145.56;100.00;59612.91;7396074;19;1587;-38
2023/11/09 03:58:55;;;;;;;;;;;;;;;-145.56;100.00;59612.91;7397113;19;1750;-38
2023/11/09 04:01:23;;;;;;;;;;;;;;;-145.56;100.00;59612.91;7396426;19;1843;-45
2023/11/09 04:03:52;;;;;;;;;;;;;;;-145.56;100.00;59612.91;7398415;19;1138;-38
2023/11/09 04:06:21;;;;;;;;;;;;;;;-145.56;100.00;59612.91;7394343;19;1865;-38
2023/11/09 04:08:52;;;;;;;;;;;;;;;-145.56;100.00;59612.91;7395442;19;1582;-38
2023/11/09 04:11:20;;;;;;;;;;;;;;;-145.56;100.00;59612.91;7396270;19;1787;-38
2023/11/09 04:13:49;;;;;;;;;;;;;;;-145.56;100.00;59612.91;7395824;19;1676;-38
2023/11/09 04:16:17;;;;;;;;;;;;;;;-145.56;100.00;59612.91;7394537;19;1395;-38
2023/11/09 04:18:43;;;;;;;;;;;;;;;-145.56;100.00;59612.91;7394843;19;1593;-38
2023/11/09 04:21:11;;;;;;;;;;;;;;;-145.56;100.00;59612.91;7393747;19;1500;-38
2023/11/09 04:23:39;;;;;;;;;;;;;;;-145.56;100.00;59612.91;7394899;19;1648;-38
2023/11/09 04:26:12;;;;;;;;;;;;;;;-145.56;100.00;59612.91;7394041;19;1852;-38
2023/11/09 04:28:41;;;;;;;;;;;;;;;-145.56;100.00;59612.91;7395055;19;1380;-38
2023/11/09 04:31:10;;;;;;;;;;;;;;;-145.56;100.00;59612.91;7395244;19;1535;-38
2023/11/09 04:33:38;;;;;;;;;;;;;;;-145.56;100.00;59612.91;7380631;19;1361;-38
2023/11/09 04:36:08;;;;;;;;;;;;;;;-145.56;100.00;59612.91;7394770;19;1927;-38
2023/11/09 04:38:38;;;;;;;;;;;;;;;-145.56;100.00;59612.91;7393080;19;1941;-38
2023/11/09 04:41:09;;;;;;;;;;;;;;;-145.56;100.00;59612.91;7394139;19;1393;-38
2023/11/09 04:43:41;;;;;;;;;;;;;;;-145.56;100.00;59612.91;7393209;19;1756;-38
2023/11/09 04:46:13;;;;;;;;;;;;;;;-145.56;100.00;59612.91;7394130;19;1853;-38
2023/11/09 04:48:44;;;;;;;;;;;;;;;-145.56;100.00;59612.91;7394134;19;1724;-38
2023/11/09 04:51:20;;;;;;;;;;;;;;;-145.56;100.00;59612.91;7394487;19;1652;-38
2023/11/09 04:53:51;;;;;;;;;;;;;;;-145.56;100.00;59612.91;7391863;19;1480;-38
2023/11/09 04:56:32;;;;;;;;;;;;;;;-145.56;100.00;59612.91;7393072;19;1313;-38
2023/11/09 05:06:48;;;;;;;;;;;;;;;-145.56;100.00;59612.91;7392318;19;1409;-38
2023/11/09 05:07:13;;;;;;;;;;;;;;;-145.56;100.00;59612.91;7391988;19;1857;-38
2023/11/09 05:09:45;;;;;;;;;;;;;;;-145.56;100.00;59612.91;7391023;19;1535;-38
2023/11/09 05:12:14;;;;;;;;;;;;;;;-145.56;100.00;59612.91;7396191;19;1046;-38
2023/11/09 05:14:45;;;;;;;;;;;;;;;-145.56;100.00;59612.91;7393841;19;1746;-38
2023/11/09 05:17:14;;;;;;;;;;;;;;;-145.56;100.00;59612.91;7392291;19;1827;-38
2023/11/09 05:19:43;;;;;;;;;;;;;;;-145.56;100.00;59612.91;7393027;19;1956;-38
2023/11/09 05:22:11;;;;;;;;;;;;;;;-145.56;100.00;59612.91;7394813;19;1832;-38
2023/11/09 05:24:40;;;;;;;;;;;;;;;-145.56;100.00;59612.91;7393191;19;1818;-38
2023/11/09 05:27:08;;;;;;;;;;;;;;;-145.56;100.00;59612.91;7392289;19;1857;-38
2023/11/09 05:29:37;;;;;;;;;;;;;;;-145.56;100.00;59612.91;7393024;19;1457;-38
2023/11/09 05:32:08;;;;;;;;;;;;;;;-145.56;100.00;59612.91;7391943;19;1418;-38
2023/11/09 05:34:37;;;;;;;;;;;;;;;-145.56;100.00;59612.91;7377051;19;1652;-38
2023/11/09 05:37:06;;;;;;;;;;;;;;;-145.56;100.00;59612.91;7393881;19;1678;-38
2023/11/09 05:39:35;;;;;;;;;;;;;;;-145.56;100.00;59612.91;7393182;19;1341;-38
2023/11/09 05:42:03;;;;;;;;;;;;;;;-145.56;100.00;59612.91;7393986;19;1756;-38
2023/11/09 05:44:32;;;;;;;;;;;;;;;-145.56;100.00;59612.91;7393249;19;1384;-38
2023/11/09 05:47:00;;;;;;;;;;;;;;;-145.56;100.00;59612.91;7394191;19;1849;-38
2023/11/09 05:49:31;;;;;;;;;;;;;;;-145.56;100.00;59612.91;7393844;19;1911;-38
2023/11/09 05:51:59;;;;;;;;;;;;;;;-145.56;100.00;59612.91;7393526;19;1832;-38
2023/11/09 05:54:27;;;;;;;;;;;;;;;-145.56;100.00;59612.91;7392046;19;1836;-37
2023/11/09 05:56:56;;;;;;;;;;;;;;;-145.56;100.00;59612.91;7393878;19;1752;-38
2023/11/09 05:59:24;;;;;;;;;;;;;;;-145.56;100.00;59612.91;7392890;19;1752;-37
2023/11/09 06:01:52;;;;;;;;;;;;;;;-145.56;100.00;59612.91;7392623;19;1690;-37
2023/11/09 06:04:21;;;;;;;;;;;;;;;-145.56;100.00;59612.91;7392548;19;1477;-37
2023/11/09 06:06:52;;;;;;;;;;;;;;;-145.56;100.00;59612.91;7394717;19;1849;-37
2023/11/09 06:09:20;;;;;;;;;;;;;;;-145.56;100.00;59612.91;7397406;19;1816;-37
2023/11/09 06:11:48;;;;;;;;;;;;;;;-145.56;100.00;59612.91;7397671;19;1557;-37
2023/11/09 06:14:17;;;;;;;;;;;;;;;-145.56;100.00;59612.91;7396830;19;1588;-37
2023/11/09 06:16:46;;;;;;;;;;;;;;;-145.56;100.00;59612.91;7397386;19;1656;-37
2023/11/09 06:19:14;;;;;;;;;;;;;;;-145.56;100.00;59612.91;7398103;19;1698;-37
2023/11/09 06:21:42;;;;;;;;;;;;;;;-145.56;100.00;59612.91;7397577;19;1605;-37
2023/11/09 06:24:13;;;;;;;;;;;;;;;-145.56;100.00;59612.91;7397992;19;1387;-37
2023/11/09 06:26:42;;;;;;;;;;;;;;;-145.56;100.00;59612.91;7392983;19;1855;-37
2023/11/09 06:29:10;;;;;;;;;;;;;;;-145.56;100.00;59612.91;7391655;19;1476;-37
2023/11/09 06:31:39;;;;;;;;;;;;;;;-145.56;100.00;59612.91;7396500;19;1480;-37
2023/11/09 06:34:14;;;;;;;;;;;;;;;-145.56;100.00;59612.91;7383967;19;1701;-38
2023/11/09 06:36:43;;;;;;;;;;;;;;;-145.56;100.00;59612.91;7398254;19;1962;-37
2023/11/09 06:39:16;;;;;;;;;;;;;;;-145.56;100.00;59612.91;7399321;19;1025;-38
2023/11/09 06:41:45;;;;;;;;;;;;;;;-145.56;100.00;59612.91;7399092;19;1693;-38
2023/11/09 06:44:13;;;;;;;;;;;;;;;-145.56;100.00;59612.91;7396129;19;1553;-38
2023/11/09 06:46:41;;;;;;;;;;;;;;;-145.56;100.00;59612.91;7396915;19;1841;-38
2023/11/09 06:49:11;;;;;;;;;;;;;;;-145.56;100.00;59612.91;7398241;19;1748;-37
2023/11/09 06:51:39;;;;;;;;;;;;;;;-145.56;100.00;59612.91;7398198;19;1351;-38
2023/11/09 06:54:08;;;;;;;;;;;;;;;-145.56;100.00;59612.91;7397217;19;1737;-38
2023/11/09 06:56:39;;;;;;;;;;;;;;;-145.56;100.00;59612.91;7396644;19;1626;-37
2023/11/09 06:59:08;;;;;;;;;;;;;;;-145.56;100.00;59612.91;7394484;19;1496;-37
2023/11/09 07:01:37;;;;;;;;;;;;;;;-145.56;100.00;59612.91;7395335;19;1724;-38
2023/11/09 07:04:05;;;;;;;;;;;;;;;-145.56;100.00;59612.91;7398995;19;1043;-37
2023/11/09 07:06:34;;;;;;;;;;;;;;;-145.56;100.00;59612.91;7397244;19;1899;-38
2023/11/09 07:09:03;;;;;;;;;;;;;;;-145.56;100.00;59612.91;7394258;19;1943;-38
2023/11/09 07:11:32;;;;;;;;;;;;;;;-145.56;100.00;59612.91;7397503;19;1689;-38
2023/11/09 07:14:04;;;;;;;;;;;;;;;-145.56;100.00;59612.91;7396966;19;1383;-37
2023/11/09 07:16:32;;;;;;;;;;;;;;;-145.56;100.00;59612.91;7394488;19;1832;-37
2023/11/09 07:19:01;;;;;;;;;;;;;;;-145.56;100.00;59612.91;7394844;19;1736;-38
2023/11/09 07:21:29;;;;;;;;;;;;;;;-145.56;100.00;59612.91;7394714;19;1407;-38
2023/11/09 07:23:59;;;;;;;;;;;;;;;-145.56;100.00;59612.91;7393954;19;1655;-37
2023/11/09 07:26:29;;;;;;;;;;;;;;;-145.56;100.00;59612.91;7396891;19;1725;-38
2023/11/09 07:28:58;;;;;;;;;;;;;;;-145.56;100.00;59612.91;7392643;19;1865;-38
2023/11/09 07:31:29;;;;;;;;;;;;;;;-145.56;100.00;59612.91;7393873;19;1402;-37
2023/11/09 07:33:58;;;;;;;;;;;;;;;-145.56;100.00;59612.91;7382922;19;1830;-38
2023/11/09 07:36:26;;;;;;;;;;;;;;;-145.56;100.00;59612.91;7398057;19;1033;-38
2023/11/09 07:38:55;;;;;;;;;;;;;;;-145.56;100.00;59612.91;7397239;19;1773;-38
2023/11/09 07:41:26;;;;;;;;;;;;;;;-145.56;100.00;59612.91;7395245;19;1831;-38
2023/11/09 07:43:55;;;;;;;;;;;;;;;-145.56;100.00;59612.91;7392375;19;1730;-38
2023/11/09 07:46:24;;;;;;;;;;;;;;;-145.56;100.00;59612.91;7397214;19;1511;-38
2023/11/09 07:48:57;;;;;;;;;;;;;;;-145.56;100.00;59612.91;7394526;19;1871;-38
2023/11/09 07:51:25;;;;;;;;;;;;;;;-145.56;100.00;59612.91;7396034;19;1842;-38
2023/11/09 07:53:54;;;;;;;;;;;;;;;-145.56;100.00;59612.91;7395786;19;1547;-37
2023/11/09 07:56:23;;;;;;;;;;;;;;;-145.56;100.00;59612.91;7394626;19;1803;-38
2023/11/09 07:58:51;;;;;;;;;;;;;;;-145.56;100.00;59612.91;7395157;19;1654;-38
2023/11/09 08:01:19;;;;;;;;;;;;;;;-145.56;100.00;59612.91;7392570;19;1658;-38
2023/11/09 08:03:48;;;;;;;;;;;;;;;-145.56;100.00;59612.91;7397485;19;1130;-37
2023/11/09 08:06:20;;;;;;;;;;;;;;;-145.56;100.00;59612.91;7393454;19;1902;-38
2023/11/09 08:08:49;;;;;;;;;;;;;;;-145.56;100.00;59612.91;7392868;19;1837;-38
2023/11/09 08:11:17;;;;;;;;;;;;;;;-145.56;100.00;59612.91;7393173;19;1795;-38
2023/11/09 08:13:46;;;;;;;;;;;;;;;-145.56;100.00;59612.91;7394256;19;1832;-38
2023/11/09 08:16:14;;;;;;;;;;;;;;;-145.56;100.00;59612.91;7393031;19;1367;-37
2023/11/09 08:18:43;;;;;;;;;;;;;;;-145.56;100.00;59612.91;7393592;19;1383;-38
2023/11/09 08:21:11;;;;;;;;;;;;;;;-145.56;100.00;59612.91;7392466;19;1783;-37
2023/11/09 08:23:42;;;;;;;;;;;;;;;-145.56;100.00;59612.91;7394735;19;1645;-37
2023/11/09 08:26:11;;;;;;;;;;;;;;;-145.56;100.00;59612.91;7394173;19;1685;-38
2023/11/09 08:28:40;;;;;;;;;;;;;;;-145.56;100.00;59612.91;7390651;19;1949;-37
2023/11/09 08:31:08;;;;;;;;;;;;;;;-145.56;100.00;59612.91;7393450;19;1629;-38
2023/11/09 08:33:37;;;;;;;;;;;;;;;-145.56;100.00;59612.91;7382825;19;1809;-38
2023/11/09 08:36:10;;;;;;;;;;;;;;;-145.56;100.00;59612.91;7393552;19;1867;-37
2023/11/09 08:38:39;;;;;;;;;;;;;;;-145.56;100.00;59612.91;7393513;19;1829;-37
2023/11/09 08:41:10;;;;;;;;;;;;;;;-145.56;100.00;59612.91;7392013;19;1832;-38
2023/11/09 08:43:39;;;;;;;;;;;;;;;-145.56;100.00;59612.91;7393361;19;1811;-38
2023/11/09 08:46:07;;;;;;;;;;;;;;;-145.56;100.00;59612.91;7395339;19;1745;-38
2023/11/09 08:48:37;;;;;;;;;;;;;;;-145.56;100.00;59612.91;7391743;19;1854;-38
2023/11/09 08:51:07;;;;;;;;;;;;;;;-145.56;100.00;59612.91;7391525;19;1773;-38
2023/11/09 08:53:36;;;;;;;;;;;;;;;-145.56;100.00;59612.91;7393362;19;1764;-38
2023/11/09 08:56:05;;;;;;;;;;;;;;;-145.56;100.00;59612.91;7393380;19;1373;-38
2023/11/09 08:58:39;;;;;;;;;;;;;;;-145.56;100.00;59612.91;7393207;19;1805;-46
2023/11/09 09:01:16;;;;;;;;;;;;;;;-145.56;100.00;59612.91;7390551;19;1681;-41
2023/11/09 09:03:45;;;;;;;;;;;;;;;-145.56;100.00;59612.91;7394217;19;1034;-42
2023/11/09 09:06:15;;;;;;;;;;;;;;;-145.56;100.00;59612.91;7392298;19;1967;-38
2023/11/09 09:08:45;;;;;;;;;;;;;;;-145.56;100.00;59612.91;7390696;19;1853;-38
2023/11/09 09:11:14;;;;;;;;;;;;;;;-145.56;100.00;59612.91;7393852;19;1740;-38
2023/11/09 09:13:45;;;;;;;;;;;;;;;-145.56;100.00;59612.91;7391969;19;1816;-38
2023/11/09 09:16:15;;;;;;;;;;;;;;;-145.56;100.00;59612.91;7393295;19;1609;-37
2023/11/09 09:18:45;;;;;;;;;;;;;;;-145.56;100.00;59612.91;7392636;19;1724;-38
2023/11/09 09:21:14;;;;;;;;;;;;;;;-145.56;100.00;59612.91;7392824;19;1653;-43
2023/11/09 09:23:42;;;;;;;;;;;;;;;-145.56;100.00;59612.91;7393028;19;1740;-38
2023/11/09 09:26:11;;;;;;;;;;;;;;;-145.56;100.00;59612.91;7392993;19;1674;-37
2023/11/09 09:28:47;;;;;;;;;;;;;;;-145.56;100.00;59612.91;7392020;19;1837;-38
2023/11/09 09:31:18;;;;;;;;;;;;;;;-145.56;100.00;59612.91;7392433;19;1700;-38
2023/11/09 09:34:02;;;;;;;;;;;;;;;-145.56;100.00;59612.91;7388955;19;1927;-38
2023/11/09 09:36:33;;;;;;;;;;;;;;;-145.56;100.00;59612.91;7391788;19;1580;-38
2023/11/09 09:39:03;;;;;;;;;;;;;;;-145.56;100.00;59612.91;7392264;19;1420;-38
2023/11/09 09:41:33;;;;;;;;;;;;;;;-145.56;100.00;59612.91;7389052;19;2082;-38
2023/11/09 09:44:08;;;;;;;;;;;;;;;-145.56;100.00;59612.91;7390858;19;1832;-38
2023/11/09 09:46:42;;;;;;;;;;;;;;;-145.56;100.00;59612.91;7391196;19;1741;-38
2023/11/09 09:49:13;;;;;;;;;;;;;;;-145.56;100.00;59612.91;7388885;19;1871;-38
2023/11/09 09:51:43;;;;;;;;;;;;;;;-145.56;100.00;59612.91;7391280;19;1733;-37
2023/11/09 09:54:12;;;;;;;;;;;;;;;-145.56;100.00;59612.91;7391363;19;1823;-37
2023/11/09 09:56:41;;;;;;;;;;;;;;;-145.56;100.00;59612.91;7389807;19;1504;-38
2023/11/09 09:59:09;;;;;;;;;;;;;;;-145.56;100.00;59612.91;7390762;19;1717;-38
2023/11/09 10:01:43;;;;;;;;;;;;;;;-145.56;100.00;59612.91;7389887;19;1531;-38
2023/11/09 10:04:14;;;;;;;;;;;;;;;-145.56;100.00;59612.91;7380493;19;12689;-38
2023/11/09 10:08:07;;;;;;;;;;;;;;;22.24;50.75;101520.91;7326192;19;12652;-43
2023/11/09 10:10:37;;;;;;;;;;;;;;;21.47;52.01;101528.63;7427009;19;1749;-43
2023/11/09 10:13:07;;;;;;;;;;;;;;;21.28;52.57;101518.59;7427363;19;1796;-43
2023/11/09 10:15:36;;;;;;;;;;;;;;;21.25;52.60;101523.25;7426234;19;1737;-43
2023/11/09 10:18:05;;;;;;;;;;;;;;;21.19;52.95;101518.41;7427893;19;1655;-43
2023/11/09 10:20:34;;;;;;;;;;;;;;;21.19;52.98;101512.19;7427579;19;1596;-43
2023/11/09 10:23:08;;;;;;;;;;;;;;;21.21;52.65;101515.59;7427154;19;1480;-43
2023/11/09 10:25:36;;;;;;;;;;;;;;;21.23;52.95;101510.94;7426820;19;1858;-43
2023/11/09 10:28:07;;;;;;;;;;;;;;;21.29;52.88;101507.72;7427201;19;1794;-43
2023/11/09 10:30:38;;;;;;;;;;;;;;;21.28;53.16;101513.22;7427950;19;1717;-43
2023/11/09 10:33:08;;;;;;;;;;;;;;;21.28;52.91;101500.59;7426557;19;1718;-43
2023/11/09 10:35:37;;;;;;;;;;;;;;;21.32;52.79;101517.34;7410595;19;1828;-43
2023/11/09 10:38:09;;;;;;;;;;;;;;;21.33;52.61;101509.13;7426526;19;1514;-43
2023/11/09 10:40:41;;;;;;;;;;;;;;;21.34;52.91;101505.44;7426449;19;1745;-43
2023/11/09 10:43:14;;;;;;;;;;;;;;;21.23;53.19;101513.63;7426939;19;1608;-45
2023/11/09 10:45:43;;;;;;;;;;;;;;;21.23;52.88;101508.25;7370896;19;14995;-43
2023/11/09 10:48:15;;;;;;;;;;;;;;;21.16;53.38;101507.88;7425010;19;1576;-43
2023/11/09 10:50:47;;;;;;;;;;;;;;;21.11;53.37;101517.34;7427166;19;1762;-43
2023/11/09 10:53:18;;;;;;;;;;;;;;;21.11;53.30;101507.44;7425242;19;1555;-43
2023/11/09 10:55:49;;;;;;;;;;;;;;;21.11;53.14;101501.19;7426670;19;1773;-43
2023/11/09 10:58:20;;;;;;;;;;;;;;;21.09;53.36;101511.22;7426374;19;1631;-43
2023/11/09 11:00:49;;;;;;;;;;;;;;;21.07;53.40;101508.69;7426129;19;1827;-45
2023/11/09 11:03:25;;;;;;;;;;;;;;;21.11;53.56;101514.66;7427329;19;2104;-48
2023/11/09 11:05:57;;;;;;;;;;;;;;;21.19;53.14;101517.56;7425383;19;2180;-46
2023/11/09 11:08:31;;;;;;;;;;;;;;;21.17;53.39;101508.72;7426925;19;1626;-46
2023/11/09 11:11:02;;;;;;;;;;;;;;;21.15;53.75;101511.59;7422019;19;1769;-43
2023/11/09 11:13:32;;;;;;;;;;;;;;;21.11;53.24;101512.84;7423286;19;1645;-43
2023/11/09 11:16:18;;;;;;;;;;;;;;;21.06;53.54;101513.19;7425621;19;1835;-43
2023/11/09 11:19:00;;;;;;;;;;;;;;;21.09;53.83;101522.00;7400176;19;1582;-43
2023/11/09 11:21:41;;;;;;;;;;;;;;;21.00;53.54;101519.09;7397503;19;1819;-43
2023/11/09 11:24:24;;;;;;;;;;;;;;;21.03;53.52;101513.47;7397438;19;1566;-43
2023/11/09 11:27:02;;;;;;;;;;;;;;;20.94;53.63;101516.94;7391599;19;1865;-43
2023/11/09 11:29:32;;;;;;;;;;;;;;;20.99;53.55;101521.91;7396756;19;1638;-43
2023/11/09 11:32:01;;;;;;;;;;;;;;;20.98;53.49;101518.38;7394903;19;1752;-43
2023/11/09 11:34:44;;;;;;;;;;;;;;;21.01;53.72;101526.22;7386771;19;1174;-44
2023/11/09 11:37:13;;;;;;;;;;;;;;;21.06;53.76;101518.56;7396400;19;1741;-43
2023/11/09 11:39:41;;;;;;;;;;;;;;;21.05;53.58;101506.13;7396625;19;1737;-43
2023/11/09 11:42:25;;;;;;;;;;;;;;;21.06;53.90;101506.97;7397115;19;1842;-43
2023/11/09 11:44:54;;;;;;;;;;;;;;;21.10;53.92;101521.03;7396431;19;1669;-44
2023/11/09 11:47:20;;;;;;;;;;;;;;;21.06;53.93;101502.44;7395125;19;1863;-43
2023/11/09 11:49:49;;;;;;;;;;;;;;;21.08;54.05;101501.47;7395946;19;1724;-44
2023/11/09 11:52:20;;;;;;;;;;;;;;;21.03;54.15;101510.78;7396771;19;1771;-43
2023/11/09 11:54:48;;;;;;;;;;;;;;;21.03;54.06;101513.47;7395599;19;1491;-43
2023/11/09 11:57:18;;;;;;;;;;;;;;;21.06;53.88;101496.22;7396555;19;1736;-44
2023/11/09 12:00:03;;;;;;;;;;;;;;;21.03;53.54;101502.72;7395093;19;1518;-51
2023/11/09 12:02:32;;;;;;;;;;;;;;;21.01;53.87;101498.47;7395567;19;1345;-43
2023/11/09 12:05:00;;;;;;;;;;;;;;;21.01;53.57;101507.38;7394089;19;1583;-43
2023/11/09 12:07:29;;;;;;;;;;;;;;;21.08;53.35;101496.94;7393482;19;1860;-43
2023/11/09 12:09:58;;;;;;;;;;;;;;;20.96;53.58;101482.72;7395984;19;1645;-43
2023/11/09 12:12:27;;;;;;;;;;;;;;;20.97;53.78;101489.81;7393931;19;2559;-43
2023/11/09 12:15:00;;;;;;;;;;;;;;;20.92;53.47;101477.75;7396558;19;1598;-44
2023/11/09 12:17:28;;;;;;;;;;;;;;;20.89;53.61;101492.31;7397073;19;1710;-52
2023/11/09 12:19:56;;;;;;;;;;;;;;;20.88;53.75;101485.19;7394781;19;1871;-44
2023/11/09 12:22:25;;;;;;;;;;;;;;;20.89;53.21;101489.63;7396156;19;1681;-43
2023/11/09 12:25:00;;;;;;;;;;;;;;;20.86;53.11;101479.09;7396230;19;1728;-43
2023/11/09 12:27:31;;;;;;;;;;;;;;;20.84;53.11;101476.53;7395698;19;1851;-43
2023/11/09 12:30:03;;;;;;;;;;;;;;;20.89;53.08;101470.78;7392474;19;1784;-43
2023/11/09 12:32:31;;;;;;;;;;;;;;;20.84;53.39;101476.53;7395191;19;1881;-43
2023/11/09 12:35:01;;;;;;;;;;;;;;;20.88;53.16;101463.69;7379043;19;1762;-43
2023/11/09 12:37:36;;;;;;;;;;;;;;;20.81;53.19;101465.19;7394260;19;1996;-43
2023/11/09 12:40:04;;;;;;;;;;;;;;;20.82;53.47;101474.97;7393374;19;1815;-43
2023/11/09 12:42:34;;;;;;;;;;;;;;;20.83;53.25;101465.91;7395893;19;1847;-43
2023/11/09 12:45:11;;;;;;;;;;;;;;;20.93;52.91;101468.66;7393834;19;1728;-43
2023/11/09 12:47:40;;;;;;;;;;;;;;;20.94;53.19;101482.00;7390337;19;1832;-43
2023/11/09 12:50:16;;;;;;;;;;;;;;;20.91;52.72;101470.63;7393313;19;1581;-43